Luzern, Switzerland
Current Conditions -  °F | °C
As of 10:50 AM on Friday 28 Nov 2014 (Local Time) from LSME Reporting Station
Overcast Overcast  
Wind Chill: 41°   Ceiling: 900
Heat Index: 45°   Visibility: 6mi
Dew Point: 41°   Wind: 6mph
Humidity: 87%   Direction: 40°NE
Pressure: 29.74"   Gusts: NA
Location:  47.06°N, 8.3°E
Report Text: LSME 280950Z 04005KT 9999 OVC009 07/05 Q1007 RMK YLO
Loading
Personal Weather Stations






























Interactive Weather Map New forecast layout! Learn more

10-Day Weather Forecast

Advertisements
Track Severe Weather on mobile